Time;durP1;ratioP1;P1;durP2;ratioP2;P2;SDS_P1;SDS_P2;PMS_P1;PMS_P2;Temp;Humidity;BMP_temperature;BMP_pressure;BME280_temperature;BME280_humidity;BME280_pressure;Samples;Min_cycle;Max_cycle;Signal;HPM_P1;HPM_P2
2022/06/28 00:01:42;;;;;;;;;;;;;;;;;;4962937;28;20578;-62
2022/06/28 00:04:08;;;;;;;;;;;;;;;;;;4950448;28;19927;-61
2022/06/28 00:06:33;;;;;;;;;;;;;;;;;;4965730;28;19918;-61
2022/06/28 00:08:58;;;;;;;;;;;;;;;;;;4965239;28;19944;-61
2022/06/28 00:11:23;;;;;;;;;;;;;;;;;;4950146;28;20116;-61
2022/06/28 00:13:49;;;;;;;;;;;;;;;;;;4951445;28;20282;-61
2022/06/28 00:16:16;;;;;;;;;;;;;;;;;;4966936;28;19946;-61
2022/06/28 00:18:41;;;;;;;;;;;;;;;;;;4951787;28;19922;-61
2022/06/28 00:21:06;;;;;;;;;;;;;;;;;;4951315;28;19993;-61
2022/06/28 00:23:32;;;;;;;;;;;;;;;;;;4935922;28;20561;-62
2022/06/28 00:25:57;;;;;;;;;;;;;;;;;;4951765;28;19922;-61
2022/06/28 00:28:22;;;;;;;;;;;;;;;;;;4967351;28;19986;-62
2022/06/28 00:30:47;;;;;;;;;;;;;;;;;;4944795;28;20292;-61
2022/06/28 00:33:13;;;;;;;;;;;;;;;;;;4940127;28;19946;-63
2022/06/28 00:35:38;;;;;;;;;;;;;;;;;;4955397;28;19922;-61
2022/06/28 00:38:03;;;;;;;;;;;;;;;;;;4955169;28;20236;-61
2022/06/28 00:40:29;;;;;;;;;;;;;;;;;;4955746;28;20450;-61
2022/06/28 00:42:54;;;;;;;;;;;;;;;;;;4957330;28;19922;-61
2022/06/28 00:45:19;;;;;;;;;;;;;;;;;;4955585;28;19926;-61
2022/06/28 00:47:44;;;;;;;;;;;;;;;;;;4956722;28;19970;-60
2022/06/28 00:50:11;;;;;;;;;;;;;;;;;;4953998;28;19945;-61
2022/06/28 00:52:36;;;;;;;;;;;;;;;;;;4968352;28;19918;-61
2022/06/28 00:55:01;;;;;;;;;;;;;;;;;;4956325;28;19987;-61
2022/06/28 00:57:26;;;;;;;;;;;;;;;;;;4955912;28;19922;-61
2022/06/28 00:59:52;;;;;;;;;;;;;;;;;;4967153;28;19939;-61
2022/06/28 01:02:17;;;;;;;;;;;;;;;;;;4952945;28;20345;-61
2022/06/28 01:04:43;;;;;;;;;;;;;;;;;;4941497;28;20284;-62
2022/06/28 01:07:08;;;;;;;;;;;;;;;;;;4961436;28;19914;-62
2022/06/28 01:09:33;;;;;;;;;;;;;;;;;;4941023;28;20009;-61
2022/06/28 01:11:58;;;;;;;;;;;;;;;;;;4946024;28;19922;-61
2022/06/28 01:14:23;;;;;;;;;;;;;;;;;;4938743;28;19918;-59
2022/06/28 01:16:59;;;;;;;;;;;;;;;;;;4952118;28;19922;-61
2022/06/28 01:19:47;;;;;;;;;;;;;;;;;;4956208;28;19918;-61
2022/06/28 01:22:42;;;;;;;;;;;;;;;;;;4952990;28;19926;-60
2022/06/28 01:25:09;;;;;;;;;;;;;;;;;;4968642;28;19929;-60
2022/06/28 01:27:36;;;;;;;;;;;;;;;;;;4949902;28;19925;-60
2022/06/28 01:30:02;;;;;;;;;;;;;;;;;;4946160;28;19926;-61
2022/06/28 01:32:37;;;;;;;;;;;;;;;;;;4944271;28;19966;-60
2022/06/28 01:35:07;;;;;;;;;;;;;;;;;;4964748;28;19926;-60
2022/06/28 01:37:32;;;;;;;;;;;;;;;;;;4954677;28;19918;-61
2022/06/28 01:39:57;;;;;;;;;;;;;;;;;;4953688;28;19914;-60
2022/06/28 01:42:22;;;;;;;;;;;;;;;;;;4954475;28;20581;-60
2022/06/28 01:44:48;;;;;;;;;;;;;;;;;;4970841;28;19965;-60
2022/06/28 01:47:30;;;;;;;;;;;;;;;;;;4943803;28;19921;-61
2022/06/28 01:49:58;;;;;;;;;;;;;;;;;;4953683;28;19918;-60
2022/06/28 01:52:27;;;;;;;;;;;;;;;;;;4945409;28;19925;-61
2022/06/28 01:54:53;;;;;;;;;;;;;;;;;;4947260;28;19918;-61
2022/06/28 01:57:19;;;;;;;;;;;;;;;;;;4958134;28;19978;-61
2022/06/28 01:59:51;;;;;;;;;;;;;;;;;;4967642;28;19973;-62
2022/06/28 02:02:36;;;;;;;;;;;;;;;;;;4954610;28;19969;-65
2022/06/28 02:05:31;;;;;;;;;;;;;;;;;;4950299;28;20024;-61
2022/06/28 02:07:56;;;;;;;;;;;;;;;;;;4962583;28;19918;-62
2022/06/28 02:10:24;;;;;;;;;;;;;;;;;;4962012;28;19918;-61
2022/06/28 02:12:49;;;;;;;;;;;;;;;;;;4964413;28;19934;-63
2022/06/28 02:15:14;;;;;;;;;;;;;;;;;;4953196;28;19978;-61
2022/06/28 02:17:40;;;;;;;;;;;;;;;;;;4970119;28;19925;-62
2022/06/28 02:20:06;;;;;;;;;;;;;;;;;;4967669;28;19918;-61
2022/06/28 02:22:31;;;;;;;;;;;;;;;;;;4943562;28;19929;-61
2022/06/28 02:24:56;;;;;;;;;;;;;;;;;;4956018;28;19918;-61
2022/06/28 02:27:21;;;;;;;;;;;;;;;;;;4963174;28;20399;-63
2022/06/28 02:29:47;;;;;;;;;;;;;;;;;;4940960;28;20639;-61
2022/06/28 02:32:12;;;;;;;;;;;;;;;;;;4955540;28;20421;-61
2022/06/28 02:40:24;;;;;;;;;;;;;;;;;;4960840;28;20367;-61
2022/06/28 02:42:50;;;;;;;;;;;;;;;;;;4951202;28;19959;-61
2022/06/28 02:45:15;;;;;;;;;;;;;;;;;;4939567;28;20409;-61
2022/06/28 02:47:40;;;;;;;;;;;;;;;;;;4952329;28;19918;-61
2022/06/28 02:50:05;;;;;;;;;;;;;;;;;;4953169;28;19972;-61
2022/06/28 02:52:30;;;;;;;;;;;;;;;;;;4942683;28;19921;-61
2022/06/28 02:54:56;;;;;;;;;;;;;;;;;;4940645;28;19918;-63
2022/06/28 02:57:21;;;;;;;;;;;;;;;;;;4955046;28;19924;-61
2022/06/28 02:59:46;;;;;;;;;;;;;;;;;;4952845;28;19925;-61
2022/06/28 03:02:11;;;;;;;;;;;;;;;;;;4965081;28;19929;-61
2022/06/28 03:04:37;;;;;;;;;;;;;;;;;;4936351;28;19922;-62
2022/06/28 03:07:02;;;;;;;;;;;;;;;;;;4964464;28;19918;-61
2022/06/28 03:09:27;;;;;;;;;;;;;;;;;;4955428;28;19922;-61
2022/06/28 03:11:53;;;;;;;;;;;;;;;;;;4942099;28;19918;-61
2022/06/28 03:14:18;;;;;;;;;;;;;;;;;;4963833;28;20423;-61
2022/06/28 03:16:43;;;;;;;;;;;;;;;;;;4943166;28;19942;-61
2022/06/28 03:19:08;;;;;;;;;;;;;;;;;;4937061;28;19929;-61
2022/06/28 03:21:34;;;;;;;;;;;;;;;;;;4944008;28;19929;-61
2022/06/28 03:23:59;;;;;;;;;;;;;;;;;;4965557;28;20013;-61
2022/06/28 03:26:24;;;;;;;;;;;;;;;;;;4941710;28;20347;-61
2022/06/28 03:28:50;;;;;;;;;;;;;;;;;;4966596;28;19918;-61
2022/06/28 03:31:16;;;;;;;;;;;;;;;;;;4954490;28;20339;-61
2022/06/28 03:33:41;;;;;;;;;;;;;;;;;;4951015;28;19915;-61
2022/06/28 03:36:06;;;;;;;;;;;;;;;;;;4966989;28;20359;-61
2022/06/28 03:38:36;;;;;;;;;;;;;;;;;;4935838;28;19924;-61
2022/06/28 03:41:22;;;;;;;;;;;;;;;;;;4964434;28;20418;-62
2022/06/28 03:43:49;;;;;;;;;;;;;;;;;;4939825;28;19930;-61
2022/06/28 03:46:14;;;;;;;;;;;;;;;;;;4956323;28;19993;-61
2022/06/28 03:48:43;;;;;;;;;;;;;;;;;;4948958;28;20028;-61
2022/06/28 03:51:31;;;;;;;;;;;;;;;;;;4959039;28;19918;-61
2022/06/28 03:54:14;;;;;;;;;;;;;;;;;;4944066;28;20022;-61
2022/06/28 03:56:45;;;;;;;;;;;;;;;;;;4934946;28;19922;-61
2022/06/28 03:59:11;;;;;;;;;;;;;;;;;;4966898;28;19928;-61
2022/06/28 04:01:36;;;;;;;;;;;;;;;;;;4944307;28;19922;-61
2022/06/28 04:04:01;;;;;;;;;;;;;;;;;;4954085;28;19923;-61
2022/06/28 04:06:27;;;;;;;;;;;;;;;;;;4968245;28;20300;-61
2022/06/28 04:08:52;;;;;;;;;;;;;;;;;;4950002;28;19918;-61
2022/06/28 04:11:17;;;;;;;;;;;;;;;;;;4967672;28;19919;-61
2022/06/28 04:13:45;;;;;;;;;;;;;;;;;;4966962;28;19924;-61
2022/06/28 04:16:10;;;;;;;;;;;;;;;;;;4966461;28;19918;-61
2022/06/28 04:18:35;;;;;;;;;;;;;;;;;;4947344;28;20186;-61
2022/06/28 04:21:15;;;;;;;;;;;;;;;;;;4967676;28;19922;-61
2022/06/28 04:23:40;;;;;;;;;;;;;;;;;;4957804;28;19929;-61
2022/06/28 04:26:05;;;;;;;;;;;;;;;;;;4944293;28;19925;-61
2022/06/28 04:28:36;;;;;;;;;;;;;;;;;;4937180;28;19919;-61
2022/06/28 04:31:04;;;;;;;;;;;;;;;;;;4943807;28;19928;-61
2022/06/28 04:33:30;;;;;;;;;;;;;;;;;;4957911;28;19918;-61
2022/06/28 04:35:55;;;;;;;;;;;;;;;;;;4946017;28;19918;-61
2022/06/28 04:38:22;;;;;;;;;;;;;;;;;;4957122;28;20017;-61
2022/06/28 04:40:57;;;;;;;;;;;;;;;;;;4939209;28;19929;-61
2022/06/28 04:43:41;;;;;;;;;;;;;;;;;;4955819;28;19929;-61
2022/06/28 04:46:06;;;;;;;;;;;;;;;;;;4966470;28;19918;-61
2022/06/28 04:48:34;;;;;;;;;;;;;;;;;;4959824;28;19922;-61
2022/06/28 04:51:11;;;;;;;;;;;;;;;;;;4943450;28;20151;-61
2022/06/28 04:53:39;;;;;;;;;;;;;;;;;;4968602;28;20155;-61
2022/06/28 04:56:05;;;;;;;;;;;;;;;;;;4945149;28;20280;-61
2022/06/28 04:58:30;;;;;;;;;;;;;;;;;;4968154;28;19921;-61
2022/06/28 05:00:55;;;;;;;;;;;;;;;;;;4965903;28;20386;-61
2022/06/28 05:03:21;;;;;;;;;;;;;;;;;;4968858;28;19922;-61
2022/06/28 05:06:01;;;;;;;;;;;;;;;;;;4959632;28;19918;-61
2022/06/28 05:08:27;;;;;;;;;;;;;;;;;;4968937;28;19918;-61
2022/06/28 05:10:58;;;;;;;;;;;;;;;;;;4959148;28;19924;-62
2022/06/28 05:13:49;;;;;;;;;;;;;;;;;;4960920;28;19919;-61
2022/06/28 05:16:16;;;;;;;;;;;;;;;;;;4938999;28;19919;-62
2022/06/28 05:18:43;;;;;;;;;;;;;;;;;;4945136;28;20470;-61
2022/06/28 05:21:11;;;;;;;;;;;;;;;;;;4965925;28;19922;-61
2022/06/28 05:23:38;;;;;;;;;;;;;;;;;;4967308;28;19952;-62
2022/06/28 05:26:19;;;;;;;;;;;;;;;;;;4955473;28;19926;-62
2022/06/28 05:28:59;;;;;;;;;;;;;;;;;;4963047;28;19969;-61
2022/06/28 05:31:25;;;;;;;;;;;;;;;;;;4967962;28;20008;-62
2022/06/28 05:33:50;;;;;;;;;;;;;;;;;;4965157;28;19918;-61
2022/06/28 05:36:15;;;;;;;;;;;;;;;;;;4971419;28;19918;-61
2022/06/28 05:38:40;;;;;;;;;;;;;;;;;;4956146;28;19924;-62
2022/06/28 05:41:06;;;;;;;;;;;;;;;;;;4940768;29;20340;-62
2022/06/28 05:43:31;;;;;;;;;;;;;;;;;;4945912;28;20630;-61
2022/06/28 05:45:56;;;;;;;;;;;;;;;;;;4966587;28;19918;-61
2022/06/28 05:48:21;;;;;;;;;;;;;;;;;;4954863;28;19922;-62
2022/06/28 05:50:47;;;;;;;;;;;;;;;;;;4955498;28;19922;-61
2022/06/28 05:53:13;;;;;;;;;;;;;;;;;;4939831;28;19918;-61
2022/06/28 05:55:38;;;;;;;;;;;;;;;;;;4957561;28;19960;-61
2022/06/28 05:58:03;;;;;;;;;;;;;;;;;;4969094;28;19957;-63
2022/06/28 06:00:28;;;;;;;;;;;;;;;;;;4965759;28;19945;-62
2022/06/28 06:02:54;;;;;;;;;;;;;;;;;;4951996;28;20264;-62
2022/06/28 06:05:19;;;;;;;;;;;;;;;;;;4938530;28;19981;-62
2022/06/28 06:07:45;;;;;;;;;;;;;;;;;;4941263;28;19918;-62
2022/06/28 06:10:10;;;;;;;;;;;;;;;;;;4965026;28;19982;-62
2022/06/28 06:12:35;;;;;;;;;;;;;;;;;;4953185;28;20410;-63
2022/06/28 06:15:01;;;;;;;;;;;;;;;;;;4951422;28;19954;-62
2022/06/28 06:17:26;;;;;;;;;;;;;;;;;;4964247;28;20080;-61
2022/06/28 06:19:51;;;;;;;;;;;;;;;;;;4964431;28;20716;-62
2022/06/28 06:22:17;;;;;;;;;;;;;;;;;;4965112;28;19938;-61
2022/06/28 06:24:42;;;;;;;;;;;;;;;;;;4956681;28;19922;-61
2022/06/28 06:27:14;;;;;;;;;;;;;;;;;;4944185;28;20409;-62
2022/06/28 06:29:41;;;;;;;;;;;;;;;;;;4968387;28;19922;-62
2022/06/28 06:32:11;;;;;;;;;;;;;;;;;;4953540;28;20679;-61
2022/06/28 06:34:36;;;;;;;;;;;;;;;;;;4963847;28;19923;-62
2022/06/28 06:37:04;;;;;;;;;;;;;;;;;;4964021;28;19944;-61
2022/06/28 06:39:29;;;;;;;;;;;;;;;;;;4939227;28;20383;-62
2022/06/28 06:41:55;;;;;;;;;;;;;;;;;;4950322;28;19922;-62
2022/06/28 06:44:20;;;;;;;;;;;;;;;;;;4938911;28;19933;-62
2022/06/28 06:46:49;;;;;;;;;;;;;;;;;;4956402;28;19918;-62
2022/06/28 06:49:17;;;;;;;;;;;;;;;;;;4962966;28;19918;-62
2022/06/28 06:51:44;;;;;;;;;;;;;;;;;;4965523;28;20382;-62
2022/06/28 06:54:09;;;;;;;;;;;;;;;;;;4957943;28;19918;-62
2022/06/28 06:56:35;;;;;;;;;;;;;;;;;;4939936;28;19924;-61
2022/06/28 06:59:00;;;;;;;;;;;;;;;;;;4955220;28;19964;-62
2022/06/28 07:01:28;;;;;;;;;;;;;;;;;;4955369;28;19936;-62
2022/06/28 07:03:54;;;;;;;;;;;;;;;;;;4955749;28;19950;-62
2022/06/28 07:06:20;;;;;;;;;;;;;;;;;;4963441;28;19923;-62
2022/06/28 07:08:45;;;;;;;;;;;;;;;;;;4938437;28;19922;-61
2022/06/28 07:11:11;;;;;;;;;;;;;;;;;;4941452;28;20454;-61
2022/06/28 07:13:37;;;;;;;;;;;;;;;;;;4963833;28;20375;-61
2022/06/28 07:16:02;;;;;;;;;;;;;;;;;;4964503;28;20502;-61
2022/06/28 07:18:28;;;;;;;;;;;;;;;;;;4936355;28;20371;-63
2022/06/28 07:20:56;;;;;;;;;;;;;;;;;;4963014;28;19937;-64
2022/06/28 07:23:21;;;;;;;;;;;;;;;;;;4938066;28;19946;-64
2022/06/28 07:25:47;;;;;;;;;;;;;;;;;;4954201;28;19957;-64
2022/06/28 07:28:12;;;;;;;;;;;;;;;;;;4935980;28;20013;-64
2022/06/28 07:30:37;;;;;;;;;;;;;;;;;;4963509;28;19977;-64
2022/06/28 07:33:02;;;;;;;;;;;;;;;;;;4967280;28;19919;-64
2022/06/28 07:35:27;;;;;;;;;;;;;;;;;;4965551;28;20005;-64
2022/06/28 07:37:53;;;;;;;;;;;;;;;;;;4964227;28;19919;-64
2022/06/28 07:40:38;;;;;;;;;;;;;;;;;;4957631;28;20378;-64
2022/06/28 07:43:22;;;;;;;;;;;;;;;;;;4956664;28;20291;-64
2022/06/28 07:45:58;;;;;;;;;;;;;;;;;;4950369;28;19922;-65
2022/06/28 07:48:23;;;;;;;;;;;;;;;;;;4940029;28;19928;-64
2022/06/28 07:53:34;;;;;;;;;;;;;;;;;;4970160;28;19929;-65
2022/06/28 07:56:38;;;;;;;;;;;;;;;;;;4919922;29;19918;-65
2022/06/28 07:59:04;;;;;;;;;;;;;;;;;;4905487;29;19954;-65
2022/06/28 08:01:32;;;;;;;;;;;;;;;;;;4922798;28;19933;-65
2022/06/28 08:03:58;;;;;;;;;;;;;;;;;;4931599;28;19922;-64
2022/06/28 08:06:23;;;;;;;;;;;;;;;;;;4954842;28;20009;-64
2022/06/28 08:08:52;;;;;;;;;;;;;;;;;;4966081;28;19965;-64
2022/06/28 08:11:17;;;;;;;;;;;;;;;;;;4940353;28;20040;-64
2022/06/28 08:13:46;;;;;;;;;;;;;;;;;;4942862;28;20064;-64
2022/06/28 08:16:11;;;;;;;;;;;;;;;;;;4953449;28;19918;-64
2022/06/28 08:18:36;;;;;;;;;;;;;;;;;;4958712;28;19925;-64
2022/06/28 08:21:02;;;;;;;;;;;;;;;;;;4939933;28;19929;-64
2022/06/28 08:23:27;;;;;;;;;;;;;;;;;;4942644;28;20276;-64
2022/06/28 08:25:53;;;;;;;;;;;;;;;;;;4940582;28;20009;-64
2022/06/28 08:28:18;;;;;;;;;;;;;;;;;;4964824;28;19929;-65
2022/06/28 08:30:43;;;;;;;;;;;;;;;;;;4955312;28;19933;-64
2022/06/28 08:33:09;;;;;;;;;;;;;;;;;;4967953;28;20072;-64
2022/06/28 08:35:34;;;;;;;;;;;;;;;;;;4944279;28;19981;-64
2022/06/28 08:37:59;;;;;;;;;;;;;;;;;;4955555;28;19918;-64
2022/06/28 08:40:26;;;;;;;;;;;;;;;;;;4954230;28;19973;-64
2022/06/28 08:42:51;;;;;;;;;;;;;;;;;;4956425;28;20371;-65
2022/06/28 08:45:17;;;;;;;;;;;;;;;;;;4951326;28;19918;-64
2022/06/28 08:47:42;;;;;;;;;;;;;;;;;;4952537;28;19918;-64
2022/06/28 08:50:10;;;;;;;;;;;;;;;;;;4953672;28;19926;-63
2022/06/28 08:52:35;;;;;;;;;;;;;;;;;;4966474;28;20017;-66
2022/06/28 08:55:01;;;;;;;;;;;;;;;;;;4954706;28;19928;-65
2022/06/28 08:57:30;;;;;;;;;;;;;;;;;;4953550;28;20299;-65
2022/06/28 08:59:55;;;;;;;;;;;;;;;;;;4965850;28;20005;-64
2022/06/28 09:02:20;;;;;;;;;;;;;;;;;;4953884;28;19983;-67
2022/06/28 09:04:46;;;;;;;;;;;;;;;;;;4954723;28;19922;-65
2022/06/28 09:07:11;;;;;;;;;;;;;;;;;;4952894;28;20005;-64
2022/06/28 09:09:37;;;;;;;;;;;;;;;;;;4952446;28;20343;-63
2022/06/28 09:12:02;;;;;;;;;;;;;;;;;;4946716;28;20702;-64
2022/06/28 09:14:27;;;;;;;;;;;;;;;;;;4955200;28;19926;-64
2022/06/28 09:16:53;;;;;;;;;;;;;;;;;;4940690;28;19922;-64
2022/06/28 09:19:18;;;;;;;;;;;;;;;;;;4951120;28;19922;-64
2022/06/28 09:21:43;;;;;;;;;;;;;;;;;;4954151;28;19926;-64
2022/06/28 09:24:08;;;;;;;;;;;;;;;;;;4949431;28;19922;-65
2022/06/28 09:26:34;;;;;;;;;;;;;;;;;;4965568;28;19918;-64
2022/06/28 09:28:59;;;;;;;;;;;;;;;;;;4951536;28;20452;-64
2022/06/28 09:31:24;;;;;;;;;;;;;;;;;;4885735;28;1930318;-64
2022/06/28 09:33:49;;;;;;;;;;;;;;;;;;4953679;28;19922;-65
2022/06/28 09:36:15;;;;;;;;;;;;;;;;;;4955580;28;20031;-64
2022/06/28 09:38:40;;;;;;;;;;;;;;;;;;4949677;28;19937;-64
2022/06/28 09:41:05;;;;;;;;;;;;;;;;;;4954669;28;19922;-64
2022/06/28 09:43:34;;;;;;;;;;;;;;;;;;4964551;28;19933;-64
2022/06/28 09:45:59;;;;;;;;;;;;;;;;;;4957352;28;20377;-64
2022/06/28 09:48:24;;;;;;;;;;;;;;;;;;4952099;28;20363;-64
2022/06/28 09:50:49;;;;;;;;;;;;;;;;;;4951471;28;20312;-65
2022/06/28 09:53:15;;;;;;;;;;;;;;;;;;4949752;28;20319;-65
2022/06/28 09:55:40;;;;;;;;;;;;;;;;;;4955782;28;19922;-65
2022/06/28 09:58:06;;;;;;;;;;;;;;;;;;4950846;28;19924;-65
2022/06/28 10:00:34;;;;;;;;;;;;;;;;;;4971288;28;20390;-65
2022/06/28 10:02:59;;;;;;;;;;;;;;;;;;4966029;28;20525;-64
2022/06/28 10:05:24;;;;;;;;;;;;;;;;;;4966778;28;20017;-65
2022/06/28 10:07:50;;;;;;;;;;;;;;;;;;4952383;28;20453;-64
2022/06/28 10:10:15;;;;;;;;;;;;;;;;;;4949683;28;19926;-63
2022/06/28 10:15:24;;;;;;;;;;;;;;;;;;4949180;28;20024;-64
2022/06/28 10:17:49;;;;;;;;;;;;;;;;;;4948578;28;20383;-65
2022/06/28 10:20:14;;;;;;;;;;;;;;;;;;4948766;28;20379;-65
2022/06/28 10:22:40;;;;;;;;;;;;;;;;;;4953372;28;19931;-66
2022/06/28 10:25:05;;;;;;;;;;;;;;;;;;4961571;28;20328;-64
2022/06/28 10:27:30;;;;;;;;;;;;;;;;;;4942533;28;19958;-65
2022/06/28 10:29:55;;;;;;;;;;;;;;;;;;4964400;28;19933;-66
2022/06/28 10:32:20;;;;;;;;;;;;;;;;;;4963512;28;20358;-65
2022/06/28 10:34:46;;;;;;;;;;;;;;;;;;4964595;28;19925;-64
2022/06/28 10:37:12;;;;;;;;;;;;;;;;;;4950368;28;19925;-66
2022/06/28 10:39:38;;;;;;;;;;;;;;;;;;4951265;28;20120;-66
2022/06/28 10:42:04;;;;;;;;;;;;;;;;;;4951523;28;19922;-69
2022/06/28 10:44:29;;;;;;;;;;;;;;;;;;4950856;28;20378;-65
2022/06/28 10:46:57;;;;;;;;;;;;;;;;;;4943685;28;19925;-67
2022/06/28 10:49:22;;;;;;;;;;;;;;;;;;4952481;28;19925;-65
2022/06/28 10:51:47;;;;;;;;;;;;;;;;;;4951801;28;19918;-65
2022/06/28 10:54:12;;;;;;;;;;;;;;;;;;4952077;28;19926;-63
2022/06/28 10:56:38;;;;;;;;;;;;;;;;;;4951817;28;19919;-65
2022/06/28 10:59:03;;;;;;;;;;;;;;;;;;4950632;28;20351;-63
2022/06/28 11:01:29;;;;;;;;;;;;;;;;;;4947306;28;19922;-64
2022/06/28 11:03:54;;;;;;;;;;;;;;;;;;4938990;28;20927;-63
2022/06/28 11:06:19;;;;;;;;;;;;;;;;;;4950674;28;19922;-66
2022/06/28 11:08:44;;;;;;;;;;;;;;;;;;4949306;28;19965;-65
2022/06/28 11:11:09;;;;;;;;;;;;;;;;;;4924761;28;19919;-66
2022/06/28 11:13:35;;;;;;;;;;;;;;;;;;4951258;28;19957;-65
2022/06/28 11:16:00;;;;;;;;;;;;;;;;;;4949815;28;20013;-65
2022/06/28 11:18:25;;;;;;;;;;;;;;;;;;4962070;28;19938;-64
2022/06/28 11:20:51;;;;;;;;;;;;;;;;;;4952710;28;19930;-65
2022/06/28 11:23:16;;;;;;;;;;;;;;;;;;4949067;28;20534;-65
2022/06/28 11:28:26;;;;;;;;;;;;;;;;;;4950878;28;19919;-66
2022/06/28 11:30:51;;;;;;;;;;;;;;;;;;4952035;28;19949;-67
2022/06/28 11:33:16;;;;;;;;;;;;;;;;;;4947060;28;19991;-67
2022/06/28 11:35:41;;;;;;;;;;;;;;;;;;4964209;28;19926;-64
2022/06/28 11:38:07;;;;;;;;;;;;;;;;;;4951403;28;20437;-65
2022/06/28 11:40:32;;;;;;;;;;;;;;;;;;4935108;28;19922;-65
2022/06/28 11:42:57;;;;;;;;;;;;;;;;;;4950775;28;20006;-66
2022/06/28 11:45:23;;;;;;;;;;;;;;;;;;4951290;28;19922;-65
2022/06/28 11:47:50;;;;;;;;;;;;;;;;;;4951164;28;19925;-66
2022/06/28 11:50:16;;;;;;;;;;;;;;;;;;4941603;28;19934;-66
2022/06/28 11:52:41;;;;;;;;;;;;;;;;;;4952058;28;19929;-66
2022/06/28 11:55:06;;;;;;;;;;;;;;;;;;4952631;28;19937;-66
2022/06/28 11:57:31;;;;;;;;;;;;;;;;;;4965112;28;19918;-66
2022/06/28 11:59:57;;;;;;;;;;;;;;;;;;4950019;28;20755;-66
2022/06/28 12:02:22;;;;;;;;;;;;;;;;;;4948522;28;19961;-65
2022/06/28 12:04:47;;;;;;;;;;;;;;;;;;4949739;28;19922;-66
2022/06/28 12:07:12;;;;;;;;;;;;;;;;;;4944974;28;19941;-65
2022/06/28 12:09:37;;;;;;;;;;;;;;;;;;4964673;28;19922;-66
2022/06/28 12:12:03;;;;;;;;;;;;;;;;;;4950390;28;20275;-66
2022/06/28 12:14:28;;;;;;;;;;;;;;;;;;4950768;28;20334;-65
2022/06/28 12:16:53;;;;;;;;;;;;;;;;;;4949676;28;19919;-67
2022/06/28 12:19:18;;;;;;;;;;;;;;;;;;4950005;28;19914;-66
2022/06/28 12:21:44;;;;;;;;;;;;;;;;;;4957148;28;19922;-66
2022/06/28 12:24:09;;;;;;;;;;;;;;;;;;4941376;28;19933;-68
2022/06/28 12:26:34;;;;;;;;;;;;;;;;;;4958008;28;19926;-66
2022/06/28 12:28:59;;;;;;;;;;;;;;;;;;4966669;28;19925;-67
2022/06/28 12:31:24;;;;;;;;;;;;;;;;;;4955477;28;19922;-66
2022/06/28 12:33:50;;;;;;;;;;;;;;;;;;4953770;28;19918;-66
2022/06/28 12:36:15;;;;;;;;;;;;;;;;;;4954968;28;20398;-66
2022/06/28 12:38:41;;;;;;;;;;;;;;;;;;4958397;28;19915;-66
2022/06/28 12:41:06;;;;;;;;;;;;;;;;;;4956745;28;19929;-66
2022/06/28 12:43:31;;;;;;;;;;;;;;;;;;4951769;28;19927;-66
2022/06/28 12:45:56;;;;;;;;;;;;;;;;;;4952669;28;19918;-66
2022/06/28 12:48:21;;;;;;;;;;;;;;;;;;4966622;28;19918;-66
2022/06/28 12:50:47;;;;;;;;;;;;;;;;;;4954492;28;20323;-66
2022/06/28 12:53:12;;;;;;;;;;;;;;;;;;4968507;28;20482;-66
2022/06/28 12:55:37;;;;;;;;;;;;;;;;;;4969810;28;20379;-66
2022/06/28 12:58:02;;;;;;;;;;;;;;;;;;4953575;28;19918;-66
2022/06/28 13:00:28;;;;;;;;;;;;;;;;;;4943754;28;20272;-65
2022/06/28 13:02:54;;;;;;;;;;;;;;;;;;4950160;28;19922;-66
2022/06/28 13:05:21;;;;;;;;;;;;;;;;;;4954484;28;19957;-67
2022/06/28 13:07:46;;;;;;;;;;;;;;;;;;4967489;28;19918;-66
2022/06/28 13:10:11;;;;;;;;;;;;;;;;;;4967085;28;19929;-67
2022/06/28 13:12:37;;;;;;;;;;;;;;;;;;4953563;28;19918;-67
2022/06/28 13:15:02;;;;;;;;;;;;;;;;;;4958475;28;19918;-67
2022/06/28 13:17:27;;;;;;;;;;;;;;;;;;4967185;28;19949;-66
2022/06/28 13:19:52;;;;;;;;;;;;;;;;;;4954750;28;20296;-66
2022/06/28 13:22:18;;;;;;;;;;;;;;;;;;4966958;28;20407;-65
2022/06/28 13:24:43;;;;;;;;;;;;;;;;;;4955191;28;19928;-67
2022/06/28 13:27:09;;;;;;;;;;;;;;;;;;4956394;28;19966;-66
2022/06/28 13:29:34;;;;;;;;;;;;;;;;;;4953075;28;20709;-66
2022/06/28 13:31:59;;;;;;;;;;;;;;;;;;4969018;28;19918;-66
2022/06/28 13:34:25;;;;;;;;;;;;;;;;;;4955198;28;19922;-66
2022/06/28 13:36:51;;;;;;;;;;;;;;;;;;4951716;28;19924;-67
2022/06/28 13:39:16;;;;;;;;;;;;;;;;;;4954584;28;19922;-67
2022/06/28 13:41:41;;;;;;;;;;;;;;;;;;4958550;28;20127;-67
2022/06/28 13:44:08;;;;;;;;;;;;;;;;;;4954192;28;20052;-68
2022/06/28 13:46:33;;;;;;;;;;;;;;;;;;4954426;28;19965;-67
2022/06/28 13:48:59;;;;;;;;;;;;;;;;;;4955271;28;20008;-68
2022/06/28 13:51:24;;;;;;;;;;;;;;;;;;4953638;28;19918;-68
2022/06/28 13:53:49;;;;;;;;;;;;;;;;;;4951495;28;19925;-68
2022/06/28 13:56:14;;;;;;;;;;;;;;;;;;4955977;28;20540;-65
2022/06/28 13:58:40;;;;;;;;;;;;;;;;;;4954556;28;19946;-68
2022/06/28 14:01:05;;;;;;;;;;;;;;;;;;4955918;28;19969;-67
2022/06/28 14:03:30;;;;;;;;;;;;;;;;;;4954263;28;20302;-68
2022/06/28 14:05:55;;;;;;;;;;;;;;;;;;4950484;28;19918;-69
2022/06/28 14:08:20;;;;;;;;;;;;;;;;;;4954772;28;19972;-68
2022/06/28 14:10:46;;;;;;;;;;;;;;;;;;4942949;28;19992;-68
2022/06/28 14:13:11;;;;;;;;;;;;;;;;;;4954827;28;19929;-67
2022/06/28 14:15:36;;;;;;;;;;;;;;;;;;4958723;28;19918;-67
2022/06/28 14:18:01;;;;;;;;;;;;;;;;;;4957509;28;19922;-68
2022/06/28 14:20:26;;;;;;;;;;;;;;;;;;4957715;28;20306;-67
2022/06/28 14:22:52;;;;;;;;;;;;;;;;;;4960457;28;19930;-66
2022/06/28 14:25:17;;;;;;;;;;;;;;;;;;4951636;28;19968;-66
2022/06/28 14:27:42;;;;;;;;;;;;;;;;;;4973364;28;19996;-68
2022/06/28 14:30:07;;;;;;;;;;;;;;;;;;4953470;28;20169;-67
2022/06/28 14:32:34;;;;;;;;;;;;;;;;;;4954469;28;19922;-66
2022/06/28 14:34:59;;;;;;;;;;;;;;;;;;4954467;28;19977;-67
2022/06/28 14:37:24;;;;;;;;;;;;;;;;;;4952150;28;19953;-67
2022/06/28 14:39:50;;;;;;;;;;;;;;;;;;4953226;28;19978;-68
2022/06/28 14:42:15;;;;;;;;;;;;;;;;;;4956255;28;19926;-67
2022/06/28 14:44:40;;;;;;;;;;;;;;;;;;4953041;28;19926;-68
2022/06/28 14:47:05;;;;;;;;;;;;;;;;;;4952615;28;19953;-67
2022/06/28 14:49:31;;;;;;;;;;;;;;;;;;4954392;28;20045;-66
2022/06/28 14:51:57;;;;;;;;;;;;;;;;;;4945306;28;19918;-65
2022/06/28 14:54:22;;;;;;;;;;;;;;;;;;4954402;28;20295;-64
2022/06/28 14:56:47;;;;;;;;;;;;;;;;;;4956533;28;20009;-65
2022/06/28 14:59:12;;;;;;;;;;;;;;;;;;4952838;28;19941;-64
2022/06/28 15:01:39;;;;;;;;;;;;;;;;;;4955386;28;20008;-65
2022/06/28 15:04:04;;;;;;;;;;;;;;;;;;4954510;28;19930;-65
2022/06/28 15:06:29;;;;;;;;;;;;;;;;;;4965874;28;19925;-67
2022/06/28 15:08:56;;;;;;;;;;;;;;;;;;4963593;28;20445;-65
2022/06/28 15:11:21;;;;;;;;;;;;;;;;;;4953098;28;19918;-68
2022/06/28 15:13:46;;;;;;;;;;;;;;;;;;4950760;28;20339;-67
2022/06/28 15:16:11;;;;;;;;;;;;;;;;;;4950561;28;20443;-68
2022/06/28 15:18:37;;;;;;;;;;;;;;;;;;4968762;28;19958;-66
2022/06/28 15:21:04;;;;;;;;;;;;;;;;;;4936579;28;19923;-69
2022/06/28 15:31:41;;;;;;;;;;;;;;;;;;4948267;28;19977;-70
2022/06/28 15:34:06;;;;;;;;;;;;;;;;;;4951184;28;19922;-70
2022/06/28 15:36:31;;;;;;;;;;;;;;;;;;4955525;28;19949;-69
2022/06/28 15:38:57;;;;;;;;;;;;;;;;;;4953722;28;19925;-69
2022/06/28 15:41:22;;;;;;;;;;;;;;;;;;4956659;28;20202;-69
2022/06/28 15:43:47;;;;;;;;;;;;;;;;;;4961619;28;19930;-69
2022/06/28 15:46:12;;;;;;;;;;;;;;;;;;4949269;28;20362;-68
2022/06/28 15:48:37;;;;;;;;;;;;;;;;;;4946619;28;20624;-66
2022/06/28 15:51:03;;;;;;;;;;;;;;;;;;4943385;28;19918;-67
2022/06/28 15:53:28;;;;;;;;;;;;;;;;;;4954594;28;20298;-67
2022/06/28 15:55:53;;;;;;;;;;;;;;;;;;4956878;28;19914;-67
2022/06/28 15:58:18;;;;;;;;;;;;;;;;;;4936078;28;19915;-67
2022/06/28 16:00:43;;;;;;;;;;;;;;;;;;4954771;28;19918;-69
2022/06/28 16:03:09;;;;;;;;;;;;;;;;;;4955945;28;20314;-68
2022/06/28 16:05:34;;;;;;;;;;;;;;;;;;4965381;28;20102;-68
2022/06/28 16:07:59;;;;;;;;;;;;;;;;;;4966098;28;20309;-67
2022/06/28 16:10:24;;;;;;;;;;;;;;;;;;4962234;28;20193;-66
2022/06/28 16:12:54;;;;;;;;;;;;;;;;;;4977011;28;19929;-66
2022/06/28 16:15:19;;;;;;;;;;;;;;;;;;4966362;28;20021;-67
2022/06/28 16:17:45;;;;;;;;;;;;;;;;;;4953505;28;19968;-67
2022/06/28 16:20:11;;;;;;;;;;;;;;;;;;4953661;28;20271;-66
2022/06/28 16:22:36;;;;;;;;;;;;;;;;;;4955944;28;19926;-67
2022/06/28 16:25:01;;;;;;;;;;;;;;;;;;4955585;28;20599;-67
2022/06/28 16:27:27;;;;;;;;;;;;;;;;;;4952960;28;20028;-67
2022/06/28 16:29:52;;;;;;;;;;;;;;;;;;4942153;28;19926;-66
2022/06/28 16:32:17;;;;;;;;;;;;;;;;;;4951225;28;19926;-67
2022/06/28 16:34:42;;;;;;;;;;;;;;;;;;4953951;28;19918;-67
2022/06/28 16:37:08;;;;;;;;;;;;;;;;;;4951271;28;20126;-67
2022/06/28 16:39:34;;;;;;;;;;;;;;;;;;4962851;28;19918;-67
2022/06/28 16:41:59;;;;;;;;;;;;;;;;;;4952177;28;19921;-67
2022/06/28 16:44:24;;;;;;;;;;;;;;;;;;4966367;28;19922;-67
2022/06/28 16:46:50;;;;;;;;;;;;;;;;;;4949149;28;19945;-69
2022/06/28 16:49:15;;;;;;;;;;;;;;;;;;4953116;28;20390;-66
2022/06/28 16:51:41;;;;;;;;;;;;;;;;;;4959714;28;19965;-67
2022/06/28 16:54:07;;;;;;;;;;;;;;;;;;4950503;28;19944;-68
2022/06/28 16:56:32;;;;;;;;;;;;;;;;;;4945847;28;20274;-68
2022/06/28 16:58:57;;;;;;;;;;;;;;;;;;4948837;28;20332;-68
2022/06/28 17:01:23;;;;;;;;;;;;;;;;;;4962025;28;20567;-66
2022/06/28 17:03:48;;;;;;;;;;;;;;;;;;4967479;28;19991;-67